< Typhoon 202023 2021 Season
Typhoon 202101 (DUJUAN)
General InformationTrack Information on Google MapsDetailed Wind InformationForecast History on Google MapsAccess Analytics MapList of All Images || NewsDisaster Info.WeblogTrackbackTyphoon FrontTwiphoonTyphoon Now!Typhoon ImaginationJMA Disaster Info. XMLResourceGoogle EarthGE AnimationAtom FeedGeoJSON
Detalied Best Track (Time Zone = UTC)
Year Month Day Hour Lat. Long. Pressure (hPa) Wind (kt) Class Image Chart
2021 2 17 00 6.9 134.6 1004 30 2 Image Chart
2021 2 17 03 6.4 133.9 1004 30 2 Image Chart
2021 2 17 06 6.3 133.4 1002 30 2 Image Chart
2021 2 17 09 6.5 133.4 1002 30 2 Image Chart
2021 2 17 12 6.5 133.2 1004 30 2 Image Chart
2021 2 17 15 6.5 133.1 1004 30 2 Image Chart
2021 2 17 18 6.7 132.7 1002 30 2 Image Chart
2021 2 17 21 6.7 132.5 1002 30 2 Image Chart
2021 2 18 00 7.0 132.6 1004 30 2 Image Chart
2021 2 18 03 7.3 132.4 1002 30 2 Image Chart
2021 2 18 06 7.4 132.2 998 35 3 Image Chart
2021 2 18 09 7.4 132.0 998 35 3 Image Chart
2021 2 18 12 7.4 131.9 996 40 3 Image Chart
2021 2 18 15 7.2 131.9 996 40 3 Image Chart
2021 2 18 18 7.1 131.8 996 40 3 Image Chart
2021 2 18 21 7.1 131.7 996 40 3 Image Chart
2021 2 19 00 7.0 131.7 996 40 3 Image Chart
2021 2 19 03 7.0 131.1 996 40 3 Image Chart
2021 2 19 06 7.0 130.5 996 40 3 Image Chart
2021 2 19 09 7.0 129.8 996 40 3 Image Chart
2021 2 19 12 7.0 129.6 998 40 3 Image Chart
2021 2 19 15 7.0 129.5 998 40 3 Image Chart
2021 2 19 18 6.4 129.9 998 40 3 Image Chart
2021 2 19 21 6.7 130.0 998 40 3 Image Chart
2021 2 20 00 6.8 130.0 998 40 3 Image Chart
2021 2 20 03 7.2 130.0 998 40 3 Image Chart
2021 2 20 06 7.4 129.9 998 40 3 Image Chart
2021 2 20 09 7.4 130.0 998 40 3 Image Chart
2021 2 20 12 7.4 129.8 1000 35 3 Image Chart
2021 2 20 15 7.7 129.5 1000 35 3 Image Chart
2021 2 20 18 8.1 129.3 1000 35 3 Image Chart
2021 2 20 21 8.6 129.3 1000 35 3 Image Chart
2021 2 21 00 9.0 129.3 1000 35 3 Image Chart
2021 2 21 03 9.2 129.3 1002 35 3 Image Chart
2021 2 21 06 9.4 128.9 1000 35 3 Image Chart
2021 2 21 09 9.5 128.5 1000 35 3 Image Chart
2021 2 21 12 9.7 127.9 1002 35 3 Image Chart
2021 2 21 15 9.9 127.3 1002 35 3 Image Chart
2021 2 21 18 10.5 126.9 1002 35 3 Image Chart
2021 2 21 21 10.5 126.4 1002 35 3 Image Chart
2021 2 22 00 11.0 126.0 1006 0 2 Image Chart
Japan Meteorological Agency Best Track Data | Correction Date : 2021-02-22
< Typhoon 202023 2021 Season

Help